HTBU

Bukoba Airport

Bukoba, Tanzania
METAR HTBU 181400Z 34005KT 9999 FEW019 FEW021CB SCT230 23/18 Q1014
Observed Flight Rules
Jan-18 @ 14:00 UTC (28 minutes ago) Visual Flight Rules
Wind Visibility Clouds
340° at 5 knots 10,000+ meters
  • Few at 1,900' AGL
  • Few at 2,100' AGL
  • Scattered at 23,000' AGL
Temperatures Readings
Current 23°C / 73°F
Dewpoint 18°C / 64°F
Humidity 74%
Altimeter 29.94" Hg
Pressure 1013.92 hPa
Elevation 1137
METAR HTBU 181400Z 34005KT 9999 FEW019 FEW021CB SCT230 23/18 Q1014
Observed Flight Rules
Jan-18 @ 14:00 UTC
(28 minutes ago)
VFR
Wind Visibility
340° at 5 knots 10,000+ meters
Clouds
  • Few at 1,900' AGL
  • Few at 2,100' AGL
  • Scattered at 23,000' AGL
Temperature Dewpoint
23°C / 73°F 18°C / 64°F
Humidity Altimeter Pressure
74% 29.94" Hg 1013.92 hPa